createdAt,value
2022-08-31T00:01:42.097Z,1.30
2022-08-31T00:04:33.178Z,1.17
2022-08-31T00:07:22.101Z,1.67
2022-08-31T00:10:14.538Z,1.60
2022-08-31T00:13:03.475Z,1.47
2022-08-31T00:15:54.301Z,1.73
2022-08-31T00:18:43.162Z,1.40
2022-08-31T00:21:33.498Z,1.40
2022-08-31T00:24:22.356Z,1.60
2022-08-31T00:27:11.246Z,1.40
2022-08-31T00:30:00.152Z,1.63
2022-08-31T00:32:49.070Z,1.40
2022-08-31T00:35:39.135Z,1.40
2022-08-31T00:38:29.310Z,1.23
2022-08-31T00:41:18.811Z,1.60
2022-08-31T00:44:08.780Z,1.53
2022-08-31T00:46:57.626Z,1.73
2022-08-31T00:49:50.102Z,1.50
2022-08-31T00:52:39.968Z,1.70
2022-08-31T00:55:32.729Z,1.40
2022-08-31T00:58:21.670Z,1.80
2022-08-31T01:01:11.949Z,1.40
2022-08-31T01:04:01.225Z,1.53
2022-08-31T01:06:53.787Z,1.70
2022-08-31T01:09:45.185Z,1.50
2022-08-31T01:12:47.264Z,1.70
2022-08-31T01:15:38.171Z,1.50
2022-08-31T01:18:27.011Z,1.77
2022-08-31T01:21:22.517Z,1.60
2022-08-31T01:24:13.820Z,1.40
2022-08-31T01:27:04.757Z,1.40
2022-08-31T01:29:53.707Z,1.70
2022-08-31T01:32:42.891Z,1.23
2022-08-31T01:35:31.834Z,1.53
2022-08-31T01:38:20.704Z,1.73
2022-08-31T01:41:14.313Z,1.50
2022-08-31T01:44:03.803Z,1.43
2022-08-31T01:46:53.262Z,1.70
2022-08-31T01:49:42.451Z,1.73
2022-08-31T01:52:31.300Z,1.67
2022-08-31T01:55:20.296Z,2.00
2022-08-31T01:58:10.648Z,1.60
2022-08-31T02:01:00.581Z,1.37
2022-08-31T02:03:49.502Z,1.43
2022-08-31T02:06:38.816Z,2.10
2022-08-31T02:09:27.729Z,1.40
2022-08-31T02:12:16.559Z,1.67
2022-08-31T02:15:13.382Z,1.77
2022-08-31T02:18:02.185Z,1.70
2022-08-31T02:20:52.230Z,1.73
2022-08-31T02:23:41.118Z,1.60
2022-08-31T02:26:30.067Z,1.47
2022-08-31T02:29:18.906Z,1.60
2022-08-31T02:32:09.102Z,1.57
2022-08-31T02:35:09.497Z,1.67
2022-08-31T02:37:58.322Z,1.90
2022-08-31T02:40:47.442Z,1.60
2022-08-31T02:43:38.648Z,1.40
2022-08-31T02:46:27.593Z,1.70
2022-08-31T02:49:19.749Z,1.57
2022-08-31T02:52:08.569Z,1.90
2022-08-31T02:54:57.459Z,1.93
2022-08-31T02:57:46.336Z,1.70
2022-08-31T03:00:35.438Z,1.40
2022-08-31T03:03:24.305Z,1.87
2022-08-31T03:06:14.457Z,1.70
2022-08-31T03:09:03.371Z,1.90
2022-08-31T03:11:52.219Z,1.53
2022-08-31T03:14:41.135Z,2.00
2022-08-31T03:17:30.020Z,1.60
2022-08-31T03:20:19.883Z,1.90
2022-08-31T03:23:12.151Z,2.03
2022-08-31T03:26:01.452Z,1.60
2022-08-31T03:28:50.277Z,2.00
2022-08-31T03:31:39.272Z,1.90
2022-08-31T03:34:28.269Z,2.30
2022-08-31T03:37:17.072Z,1.60
2022-08-31T03:40:08.153Z,1.40
2022-08-31T03:42:57.900Z,1.93
2022-08-31T03:45:47.246Z,1.80
2022-08-31T03:48:36.143Z,1.63
2022-08-31T03:51:25.112Z,1.63
2022-08-31T03:54:14.174Z,1.70
2022-08-31T03:57:05.523Z,2.03
2022-08-31T03:59:55.050Z,1.97
2022-08-31T04:02:44.258Z,1.60
2022-08-31T04:05:34.159Z,1.60
2022-08-31T04:08:23.151Z,1.57
2022-08-31T04:11:13.939Z,1.93
2022-08-31T04:14:04.099Z,1.70
2022-08-31T04:16:52.992Z,1.50
2022-08-31T04:19:41.994Z,1.50
2022-08-31T04:22:30.979Z,1.50
2022-08-31T04:25:21.485Z,1.80
2022-08-31T04:28:11.114Z,1.77
2022-08-31T04:31:01.441Z,1.70
2022-08-31T04:33:50.742Z,1.57
2022-08-31T04:36:41.662Z,1.83
2022-08-31T04:39:31.700Z,2.07
2022-08-31T04:42:21.658Z,1.60
2022-08-31T04:45:10.854Z,1.90
2022-08-31T04:48:00.994Z,2.07
2022-08-31T04:50:50.629Z,1.60
2022-08-31T04:53:39.802Z,1.60
2022-08-31T04:56:29.594Z,2.03
2022-08-31T04:59:19.447Z,1.50
2022-08-31T05:02:08.732Z,1.87
2022-08-31T05:04:58.995Z,1.80
2022-08-31T05:07:47.812Z,1.70
2022-08-31T05:10:36.665Z,1.70
2022-08-31T05:13:25.524Z,1.50
2022-08-31T05:16:16.115Z,1.67
2022-08-31T05:19:05.586Z,1.80
2022-08-31T05:21:56.171Z,1.70
2022-08-31T05:24:45.302Z,2.07
2022-08-31T05:27:35.011Z,1.77
2022-08-31T05:30:23.926Z,2.03
2022-08-31T05:33:12.739Z,1.40
2022-08-31T05:36:02.493Z,1.20
2022-08-31T05:38:56.557Z,1.73
2022-08-31T05:41:49.733Z,1.83
2022-08-31T05:44:38.750Z,1.60
2022-08-31T05:47:27.780Z,1.83
2022-08-31T05:50:18.474Z,2.13
2022-08-31T05:53:07.661Z,1.73
2022-08-31T05:56:01.367Z,1.60
2022-08-31T05:58:50.403Z,1.57
2022-08-31T06:01:40.310Z,1.77
2022-08-31T06:04:29.846Z,1.33
2022-08-31T06:07:18.682Z,1.40
2022-08-31T06:10:07.747Z,1.70
2022-08-31T06:12:57.927Z,1.70
2022-08-31T06:15:47.670Z,1.40
2022-08-31T06:18:38.489Z,1.40
2022-08-31T06:21:28.235Z,1.57
2022-08-31T06:24:17.069Z,1.53
2022-08-31T06:27:07.338Z,1.50
2022-08-31T06:29:58.690Z,1.20
2022-08-31T06:32:47.990Z,1.57
2022-08-31T06:35:40.794Z,1.20
2022-08-31T06:38:32.012Z,1.23
2022-08-31T06:41:23.654Z,1.40
2022-08-31T06:44:14.041Z,1.20
2022-08-31T06:47:04.254Z,1.17
2022-08-31T06:49:53.613Z,1.00
2022-08-31T06:52:42.454Z,1.60
2022-08-31T06:55:31.275Z,1.20
2022-08-31T06:58:20.107Z,1.77
2022-08-31T07:01:09.571Z,1.40
2022-08-31T07:04:00.663Z,1.17
2022-08-31T07:06:49.581Z,1.20
2022-08-31T07:09:39.506Z,1.10
2022-08-31T07:12:28.423Z,1.40
2022-08-31T07:15:17.282Z,1.80
2022-08-31T07:18:10.252Z,1.20
2022-08-31T07:21:09.377Z,1.27
2022-08-31T07:23:59.526Z,1.40
2022-08-31T07:26:49.746Z,1.40
2022-08-31T07:29:41.087Z,1.63
2022-08-31T07:32:29.928Z,1.50
2022-08-31T07:35:18.741Z,1.40
2022-08-31T07:38:26.439Z,1.50
2022-08-31T07:41:33.293Z,1.40
2022-08-31T07:44:22.676Z,2.27
2022-08-31T07:47:12.583Z,1.43
2022-08-31T07:50:02.344Z,2.00
2022-08-31T07:52:54.287Z,1.77
2022-08-31T07:55:45.755Z,1.57
2022-08-31T07:58:34.951Z,1.63
2022-08-31T08:01:23.834Z,1.20
2022-08-31T08:04:18.424Z,1.50
2022-08-31T08:07:07.266Z,1.33
2022-08-31T08:09:56.845Z,2.03
2022-08-31T08:12:48.406Z,1.60
2022-08-31T08:15:40.529Z,1.40
2022-08-31T08:18:30.170Z,1.60
2022-08-31T08:21:19.007Z,1.37
2022-08-31T08:24:09.983Z,1.55
2022-08-31T08:27:00.813Z,1.90
2022-08-31T08:29:53.002Z,1.80
2022-08-31T08:32:42.533Z,1.70
2022-08-31T08:35:32.586Z,1.60
2022-08-31T08:38:21.422Z,2.00
2022-08-31T08:41:13.624Z,2.30
2022-08-31T08:44:04.798Z,2.10
2022-08-31T08:47:38.549Z,1.80
2022-08-31T08:50:07.662Z,1.65
2022-08-31T08:52:58.111Z,2.25
2022-08-31T08:55:47.006Z,1.95
2022-08-31T08:58:36.221Z,2.35
2022-08-31T09:01:28.307Z,2.33
2022-08-31T09:04:22.601Z,2.50
2022-08-31T09:07:21.023Z,1.95
2022-08-31T09:10:16.214Z,1.85
2022-08-31T09:13:13.167Z,2.15
2022-08-31T09:16:07.662Z,2.05
2022-08-31T09:18:58.350Z,2.10
2022-08-31T09:21:49.414Z,2.13
2022-08-31T09:24:38.467Z,2.25
2022-08-31T09:27:46.818Z,2.47
2022-08-31T09:30:38.718Z,2.42
2022-08-31T09:33:28.646Z,2.60
2022-08-31T09:36:19.070Z,2.90
2022-08-31T09:39:32.959Z,2.28
2022-08-31T09:42:32.168Z,2.75
2022-08-31T09:45:30.010Z,2.85
2022-08-31T09:48:40.724Z,3.33
2022-08-31T09:51:30.618Z,2.35
2022-08-31T09:54:41.983Z,2.92
2022-08-31T09:57:45.496Z,2.70
2022-08-31T10:00:36.767Z,2.65
2022-08-31T10:03:29.288Z,2.78
2022-08-31T10:06:41.577Z,3.08
2022-08-31T10:09:35.980Z,2.45
2022-08-31T10:12:30.355Z,2.55
2022-08-31T10:15:23.124Z,2.92
2022-08-31T10:18:14.296Z,2.63
2022-08-31T10:21:07.801Z,2.97
2022-08-31T10:24:07.581Z,2.65
2022-08-31T10:27:02.872Z,3.00
2022-08-31T10:29:54.254Z,2.58
2022-08-31T10:32:53.443Z,3.20
2022-08-31T10:35:46.061Z,3.50
2022-08-31T10:38:36.430Z,3.05
2022-08-31T10:41:28.903Z,3.47
2022-08-31T10:44:23.815Z,2.97
2022-08-31T10:47:17.884Z,3.53
2022-08-31T10:50:27.899Z,3.15
2022-08-31T10:53:34.633Z,3.30
2022-08-31T10:56:35.496Z,2.70
2022-08-31T10:59:27.830Z,3.30
2022-08-31T11:02:28.983Z,2.95
2022-08-31T11:05:30.236Z,3.05
2022-08-31T11:08:29.620Z,2.55
2022-08-31T11:11:21.945Z,2.80
2022-08-31T11:14:28.968Z,2.63
2022-08-31T11:17:26.900Z,2.65
2022-08-31T11:20:30.658Z,2.30
2022-08-31T11:23:28.781Z,2.45
2022-08-31T11:26:40.334Z,4.00
2022-08-31T11:29:36.226Z,2.72
2022-08-31T11:32:27.661Z,2.40
2022-08-31T11:35:16.939Z,2.53
2022-08-31T11:38:05.745Z,2.38
2022-08-31T11:41:03.988Z,2.75
2022-08-31T11:43:54.322Z,2.58
2022-08-31T11:47:01.945Z,2.38
2022-08-31T11:49:55.819Z,2.90
2022-08-31T11:52:48.067Z,2.63
2022-08-31T11:55:47.160Z,2.90
2022-08-31T11:58:39.421Z,2.65
2022-08-31T12:01:35.821Z,2.45
2022-08-31T12:04:46.333Z,2.35
2022-08-31T12:07:41.119Z,2.08
2022-08-31T12:10:35.246Z,2.90
2022-08-31T12:13:39.656Z,1.95
2022-08-31T12:16:43.388Z,2.35
2022-08-31T12:20:03.355Z,2.30
2022-08-31T12:23:31.024Z,2.22
2022-08-31T12:26:50.530Z,2.35
2022-08-31T12:29:40.359Z,2.30
2022-08-31T12:32:30.919Z,1.90
2022-08-31T12:35:22.602Z,2.90
2022-08-31T12:38:18.119Z,2.13
2022-08-31T12:41:07.280Z,1.90
2022-08-31T12:43:56.104Z,2.25
2022-08-31T12:46:52.743Z,1.88
2022-08-31T12:50:05.938Z,2.15
2022-08-31T12:53:07.717Z,2.33
2022-08-31T12:56:01.079Z,2.33
2022-08-31T12:58:56.320Z,2.40
2022-08-31T13:01:47.168Z,2.53
2022-08-31T13:04:36.001Z,2.45
2022-08-31T13:07:30.324Z,1.90
2022-08-31T13:10:28.672Z,2.05
2022-08-31T13:13:22.663Z,2.05
2022-08-31T13:16:14.139Z,1.90
2022-08-31T13:19:05.370Z,2.22
2022-08-31T13:21:56.091Z,1.98
2022-08-31T13:24:54.176Z,2.22
2022-08-31T13:27:49.069Z,1.73
2022-08-31T13:30:39.894Z,1.52
2022-08-31T13:33:31.402Z,1.50
2022-08-31T13:36:32.146Z,1.83
2022-08-31T13:39:23.669Z,1.70
2022-08-31T13:42:14.382Z,1.90
2022-08-31T13:45:08.052Z,1.90
2022-08-31T13:47:59.038Z,1.70
2022-08-31T13:50:52.674Z,2.10
2022-08-31T13:53:42.995Z,2.05
2022-08-31T13:56:54.403Z,1.67
2022-08-31T13:59:43.303Z,1.55
2022-08-31T14:02:37.166Z,2.35
2022-08-31T14:05:30.774Z,1.52
2022-08-31T14:08:26.202Z,1.75
2022-08-31T14:11:18.863Z,1.73
2022-08-31T14:14:08.991Z,1.77
2022-08-31T14:17:03.271Z,1.63
2022-08-31T14:19:53.675Z,1.38
2022-08-31T14:22:45.858Z,1.45
2022-08-31T14:25:34.695Z,2.08
2022-08-31T14:28:28.001Z,1.67
2022-08-31T14:31:25.929Z,1.75
2022-08-31T14:34:25.561Z,1.83
2022-08-31T14:37:19.706Z,1.50
2022-08-31T14:40:10.154Z,1.50
2022-08-31T14:42:59.058Z,1.45
2022-08-31T14:45:47.896Z,1.38
2022-08-31T14:48:36.871Z,1.60
2022-08-31T14:51:27.265Z,1.73
2022-08-31T14:54:17.858Z,1.90
2022-08-31T14:57:09.576Z,1.70
2022-08-31T15:00:01.602Z,1.40
2022-08-31T15:02:53.476Z,1.70
2022-08-31T15:05:42.850Z,1.95
2022-08-31T15:08:38.774Z,2.30
2022-08-31T15:11:29.846Z,1.88
2022-08-31T15:14:18.813Z,1.58
2022-08-31T15:17:19.324Z,1.33
2022-08-31T15:20:12.137Z,1.15
2022-08-31T15:23:03.108Z,1.70
2022-08-31T15:25:51.916Z,1.40
2022-08-31T15:28:42.876Z,1.30
2022-08-31T15:31:31.710Z,1.30
2022-08-31T15:34:24.458Z,1.50
2022-08-31T15:37:13.284Z,1.10
2022-08-31T15:40:03.560Z,1.35
2022-08-31T15:42:53.927Z,2.13
2022-08-31T15:45:44.526Z,1.02
2022-08-31T15:48:45.711Z,1.35
2022-08-31T15:51:35.162Z,1.58
2022-08-31T15:54:26.150Z,1.60
2022-08-31T15:57:15.986Z,1.60
2022-08-31T16:00:05.378Z,1.35
2022-08-31T16:02:57.254Z,1.20
2022-08-31T16:05:46.476Z,1.03
2022-08-31T16:08:35.994Z,1.00
2022-08-31T16:11:26.342Z,1.00
2022-08-31T16:14:15.521Z,1.03
2022-08-31T16:17:06.034Z,1.20
2022-08-31T16:19:56.387Z,1.30
2022-08-31T16:22:45.435Z,1.30
2022-08-31T16:25:37.427Z,1.10
2022-08-31T16:28:36.973Z,1.50
2022-08-31T16:31:26.358Z,1.40
2022-08-31T16:34:15.310Z,1.30
2022-08-31T16:37:07.621Z,1.40
2022-08-31T16:39:56.532Z,1.40
2022-08-31T16:42:45.439Z,1.10
2022-08-31T16:45:34.383Z,1.30
2022-08-31T16:48:41.055Z,1.63
2022-08-31T16:51:30.186Z,1.00
2022-08-31T16:54:20.481Z,1.30
2022-08-31T16:57:09.447Z,1.33
2022-08-31T16:59:59.272Z,1.10
2022-08-31T17:02:48.165Z,1.00
2022-08-31T17:05:37.080Z,1.20
2022-08-31T17:08:26.944Z,1.23
2022-08-31T17:11:23.693Z,1.00
2022-08-31T17:14:13.631Z,1.17
2022-08-31T17:17:03.457Z,0.83
2022-08-31T17:19:53.065Z,1.10
2022-08-31T17:22:42.114Z,1.10
2022-08-31T17:25:37.003Z,0.80
2022-08-31T17:28:27.241Z,1.03
2022-08-31T17:31:16.134Z,0.90
2022-08-31T17:34:05.096Z,1.00
2022-08-31T17:36:54.026Z,1.30
2022-08-31T17:39:43.414Z,1.17
2022-08-31T17:42:34.753Z,1.00
2022-08-31T17:45:25.021Z,1.57
2022-08-31T17:48:13.926Z,1.03
2022-08-31T17:51:04.335Z,1.10
2022-08-31T17:53:53.415Z,1.10
2022-08-31T17:56:47.732Z,0.97
2022-08-31T17:59:38.167Z,1.30
2022-08-31T18:02:32.526Z,1.00
2022-08-31T18:05:22.821Z,0.90
2022-08-31T18:08:11.743Z,0.90
2022-08-31T18:11:00.658Z,1.00
2022-08-31T18:13:53.472Z,1.00
2022-08-31T18:16:43.279Z,0.90
2022-08-31T18:19:34.940Z,0.90
2022-08-31T18:22:24.220Z,1.23
2022-08-31T18:25:13.263Z,0.90
2022-08-31T18:28:03.485Z,1.03
2022-08-31T18:30:52.865Z,0.90
2022-08-31T18:33:42.645Z,0.90
2022-08-31T18:36:35.284Z,1.00
2022-08-31T18:39:49.976Z,1.10
2022-08-31T18:42:51.928Z,1.00
2022-08-31T18:45:40.822Z,1.30
2022-08-31T18:48:29.725Z,1.57
2022-08-31T18:51:21.203Z,1.00
2022-08-31T18:54:11.751Z,1.20
2022-08-31T18:57:00.647Z,1.00
2022-08-31T18:59:49.999Z,1.10
2022-08-31T19:02:42.572Z,1.00
2022-08-31T19:05:32.561Z,0.80
2022-08-31T19:08:21.437Z,1.63
2022-08-31T19:11:13.274Z,0.97
2022-08-31T19:14:02.221Z,1.57
2022-08-31T19:16:58.988Z,0.90
2022-08-31T19:19:54.058Z,1.13
2022-08-31T19:22:42.953Z,1.40
2022-08-31T19:25:32.553Z,0.80
2022-08-31T19:28:22.802Z,1.10
2022-08-31T19:31:11.979Z,1.00
2022-08-31T19:34:00.952Z,0.77
2022-08-31T19:36:54.357Z,0.80
2022-08-31T19:39:45.747Z,0.90
2022-08-31T19:42:40.580Z,1.17
2022-08-31T19:45:47.287Z,1.20
2022-08-31T19:48:46.076Z,0.90
2022-08-31T19:51:35.981Z,0.90
2022-08-31T19:54:26.045Z,1.00
2022-08-31T19:57:16.281Z,0.73
2022-08-31T20:00:06.285Z,1.03
2022-08-31T20:02:56.687Z,1.27
2022-08-31T20:05:45.623Z,1.60
2022-08-31T20:08:34.713Z,1.00
2022-08-31T20:11:25.096Z,1.00
2022-08-31T20:14:14.003Z,1.10
2022-08-31T20:17:03.072Z,0.90
2022-08-31T20:19:54.833Z,0.73
2022-08-31T20:22:45.025Z,0.80
2022-08-31T20:25:39.918Z,1.00
2022-08-31T20:28:30.175Z,1.10
2022-08-31T20:31:19.991Z,1.40
2022-08-31T20:34:18.337Z,1.00
2022-08-31T20:37:09.078Z,1.13
2022-08-31T20:39:57.967Z,0.90
2022-08-31T20:42:47.321Z,1.30
2022-08-31T20:45:36.205Z,1.13
2022-08-31T20:48:42.602Z,1.13
2022-08-31T20:51:37.872Z,1.03
2022-08-31T20:54:31.742Z,1.10
2022-08-31T20:57:20.611Z,1.23
2022-08-31T21:00:10.477Z,1.00
2022-08-31T21:03:00.296Z,1.30
2022-08-31T21:05:49.525Z,1.40
2022-08-31T21:08:39.020Z,1.00
2022-08-31T21:11:29.268Z,1.60
2022-08-31T21:14:19.906Z,1.40
2022-08-31T21:17:09.164Z,1.50
2022-08-31T21:19:57.988Z,1.13
2022-08-31T21:22:46.811Z,1.57
2022-08-31T21:25:35.642Z,1.00
2022-08-31T21:28:27.826Z,1.10
2022-08-31T21:31:28.509Z,1.10
2022-08-31T21:34:19.891Z,1.03
2022-08-31T21:37:09.631Z,1.00
2022-08-31T21:39:58.452Z,0.90
2022-08-31T21:42:47.270Z,1.00
2022-08-31T21:45:37.430Z,1.00
2022-08-31T21:48:26.511Z,1.10
2022-08-31T21:51:16.755Z,1.33
2022-08-31T21:54:07.333Z,1.10
2022-08-31T21:56:57.098Z,1.70
2022-08-31T21:59:45.936Z,1.50
2022-08-31T22:02:36.148Z,1.00
2022-08-31T22:05:24.974Z,1.57
2022-08-31T22:08:13.798Z,1.50
2022-08-31T22:11:03.735Z,1.27
2022-08-31T22:13:53.782Z,1.03
2022-08-31T22:16:43.084Z,1.03
2022-08-31T22:19:36.734Z,1.30
2022-08-31T22:22:26.289Z,1.10
2022-08-31T22:25:15.305Z,1.20
2022-08-31T22:28:06.189Z,1.20
2022-08-31T22:30:55.324Z,1.30
2022-08-31T22:33:47.240Z,1.43
2022-08-31T22:36:38.283Z,1.07
2022-08-31T22:39:28.521Z,1.20
2022-08-31T22:42:18.397Z,1.70
2022-08-31T22:45:07.804Z,1.20
2022-08-31T22:47:56.607Z,1.30
2022-08-31T22:50:45.424Z,1.90
2022-08-31T22:53:35.736Z,1.63
2022-08-31T22:56:26.301Z,1.30
2022-08-31T22:59:16.279Z,1.23
2022-08-31T23:02:05.553Z,1.20
2022-08-31T23:04:54.511Z,1.60
2022-08-31T23:07:43.839Z,1.10
2022-08-31T23:10:35.842Z,1.27
2022-08-31T23:13:44.682Z,2.43
2022-08-31T23:16:36.655Z,1.40
2022-08-31T23:19:30.325Z,1.20
2022-08-31T23:22:19.349Z,1.07
2022-08-31T23:25:13.985Z,1.63
2022-08-31T23:28:04.470Z,1.23
2022-08-31T23:30:53.446Z,1.20
2022-08-31T23:33:43.027Z,1.23
2022-08-31T23:36:31.849Z,1.67
2022-08-31T23:39:22.122Z,1.20
2022-08-31T23:42:12.408Z,1.20
2022-08-31T23:45:03.019Z,1.63
2022-08-31T23:47:52.219Z,1.20
2022-08-31T23:50:41.296Z,1.30
2022-08-31T23:53:30.143Z,1.43
2022-08-31T23:56:18.970Z,1.80
2022-08-31T23:59:09.448Z,1.47
